LFRU/MXN METAR and TAF weather

Enter ICAO airport designator
Station Type Date Time Source
LFRU METAR 2019/08/24 17:30 UTC NOAA

LFRU 241730Z AUTO 36005KT CAVOK 20/17 Q1015


Station Type Date Time Source
LFRU Decoded METAR 2019/08/24 17:30 UTC NOAA

Station name not available
Aug 24, 2019 - 01:30 PM EDT / 2019.08.24 1730 UTC
Wind: from the N (360 degrees) at 6 MPH (5 KT):0
Visibility: greater than 7 mile(s):0
Temperature: 68 F (20 C)
Dew Point: 62 F (17 C)
Relative Humidity: 82%
Pressure (altimeter): 29.97 in. Hg (1015 hPa)
ob: LFRU 241730Z AUTO 36005KT CAVOK 20/17 Q1015
cycle: 17

Station Type Date Time Source
LFRU TAF UTC NOAA

Error!

Example: see airport list